sensor_id;sensor_type;location;lat;lon;timestamp;pressure;altitude;pressure_sealevel;temperature;humidity
23363;BME280;11853;48.080;11.960;2023-08-01T00:01:32;94136.75;;;19.44;92.41
23363;BME280;11853;48.080;11.960;2023-08-01T00:03:57;94132.44;;;19.43;92.28
23363;BME280;11853;48.080;11.960;2023-08-01T00:06:23;94140.72;;;19.42;92.65
23363;BME280;11853;48.080;11.960;2023-08-01T00:08:51;94129.28;;;19.46;94.80
23363;BME280;11853;48.080;11.960;2023-08-01T00:11:16;94124.94;;;19.45;95.20
23363;BME280;11853;48.080;11.960;2023-08-01T00:13:42;94117.88;;;19.32;92.85
23363;BME280;11853;48.080;11.960;2023-08-01T00:16:09;94114.34;;;19.32;92.73
23363;BME280;11853;48.080;11.960;2023-08-01T00:18:35;94101.47;;;19.34;91.82
23363;BME280;11853;48.080;11.960;2023-08-01T00:21:01;94097.81;;;19.28;91.50
23363;BME280;11853;48.080;11.960;2023-08-01T00:23:27;94100.06;;;19.31;90.90
23363;BME280;11853;48.080;11.960;2023-08-01T00:25:53;94085.78;;;19.31;89.88
23363;BME280;11853;48.080;11.960;2023-08-01T00:28:19;94073.75;;;19.33;90.25
23363;BME280;11853;48.080;11.960;2023-08-01T00:30:44;94081.16;;;19.38;92.36
23363;BME280;11853;48.080;11.960;2023-08-01T00:33:10;94067.13;;;19.36;92.44
23363;BME280;11853;48.080;11.960;2023-08-01T00:35:35;94067.66;;;19.26;91.31
23363;BME280;11853;48.080;11.960;2023-08-01T00:38:01;94065.19;;;19.25;90.96
23363;BME280;11853;48.080;11.960;2023-08-01T00:40:34;94061.47;;;19.26;89.88
23363;BME280;11853;48.080;11.960;2023-08-01T00:42:59;94059.00;;;19.24;89.47
23363;BME280;11853;48.080;11.960;2023-08-01T00:45:29;94051.53;;;19.26;88.98
23363;BME280;11853;48.080;11.960;2023-08-01T00:47:56;94048.38;;;19.29;88.68
23363;BME280;11853;48.080;11.960;2023-08-01T00:50:22;94034.13;;;19.29;88.55
23363;BME280;11853;48.080;11.960;2023-08-01T00:52:50;94034.69;;;19.31;87.47
23363;BME280;11853;48.080;11.960;2023-08-01T00:55:17;94033.25;;;19.28;87.67
23363;BME280;11853;48.080;11.960;2023-08-01T00:57:43;94036.41;;;19.25;87.58
23363;BME280;11853;48.080;11.960;2023-08-01T01:00:09;94024.38;;;19.28;87.19
23363;BME280;11853;48.080;11.960;2023-08-01T01:02:36;94024.16;;;19.29;87.01
23363;BME280;11853;48.080;11.960;2023-08-01T01:05:03;94020.88;;;19.27;87.35
23363;BME280;11853;48.080;11.960;2023-08-01T01:07:29;94025.34;;;19.33;88.00
23363;BME280;11853;48.080;11.960;2023-08-01T01:09:55;94021.63;;;19.34;89.00
23363;BME280;11853;48.080;11.960;2023-08-01T01:12:20;94012.50;;;19.35;90.98
23363;BME280;11853;48.080;11.960;2023-08-01T01:14:46;94003.00;;;19.33;89.06
23363;BME280;11853;48.080;11.960;2023-08-01T01:17:12;94000.31;;;19.33;88.47
23363;BME280;11853;48.080;11.960;2023-08-01T01:19:38;93991.06;;;19.29;88.59
23363;BME280;11853;48.080;11.960;2023-08-01T01:22:10;93998.09;;;19.30;88.10
23363;BME280;11853;48.080;11.960;2023-08-01T01:24:37;93993.31;;;19.32;89.90
23363;BME280;11853;48.080;11.960;2023-08-01T01:27:04;93988.75;;;19.32;91.16
23363;BME280;11853;48.080;11.960;2023-08-01T01:29:32;93994.34;;;19.31;90.31
23363;BME280;11853;48.080;11.960;2023-08-01T01:32:00;93981.94;;;19.30;89.51
23363;BME280;11853;48.080;11.960;2023-08-01T01:34:27;93985.25;;;19.32;89.83
23363;BME280;11853;48.080;11.960;2023-08-01T01:36:53;93976.56;;;19.30;88.10
23363;BME280;11853;48.080;11.960;2023-08-01T01:39:18;93975.41;;;19.26;87.94
23363;BME280;11853;48.080;11.960;2023-08-01T01:41:44;93970.44;;;19.23;88.18
23363;BME280;11853;48.080;11.960;2023-08-01T01:44:09;93971.34;;;19.17;88.43
23363;BME280;11853;48.080;11.960;2023-08-01T01:46:35;93969.28;;;19.19;87.13
23363;BME280;11853;48.080;11.960;2023-08-01T01:49:02;93961.00;;;19.20;87.76
23363;BME280;11853;48.080;11.960;2023-08-01T01:51:29;93959.31;;;19.19;87.91
23363;BME280;11853;48.080;11.960;2023-08-01T01:53:55;93953.94;;;19.19;88.21
23363;BME280;11853;48.080;11.960;2023-08-01T01:56:21;93952.91;;;19.20;88.38
23363;BME280;11853;48.080;11.960;2023-08-01T01:58:46;93945.66;;;19.21;88.44
23363;BME280;11853;48.080;11.960;2023-08-01T02:01:12;93948.22;;;19.16;88.32
23363;BME280;11853;48.080;11.960;2023-08-01T02:03:38;93946.59;;;19.15;88.51
23363;BME280;11853;48.080;11.960;2023-08-01T02:06:03;93945.63;;;19.09;89.28
23363;BME280;11853;48.080;11.960;2023-08-01T02:08:30;93943.16;;;19.07;89.82
23363;BME280;11853;48.080;11.960;2023-08-01T02:10:56;93938.00;;;19.06;90.05
23363;BME280;11853;48.080;11.960;2023-08-01T02:13:27;93951.56;;;19.11;90.52
23363;BME280;11853;48.080;11.960;2023-08-01T02:15:53;93936.13;;;19.06;91.09
23363;BME280;11853;48.080;11.960;2023-08-01T02:18:19;93933.91;;;19.03;91.67
23363;BME280;11853;48.080;11.960;2023-08-01T02:20:45;93930.53;;;19.08;91.81
23363;BME280;11853;48.080;11.960;2023-08-01T02:23:11;93930.38;;;19.03;92.95
23363;BME280;11853;48.080;11.960;2023-08-01T02:25:40;93921.28;;;19.04;93.71
23363;BME280;11853;48.080;11.960;2023-08-01T02:28:06;93905.78;;;18.87;96.56
23363;BME280;11853;48.080;11.960;2023-08-01T02:30:33;93900.94;;;18.78;96.59
23363;BME280;11853;48.080;11.960;2023-08-01T02:32:59;93904.22;;;18.80;97.61
23363;BME280;11853;48.080;11.960;2023-08-01T02:35:24;93902.50;;;18.85;97.94
23363;BME280;11853;48.080;11.960;2023-08-01T02:37:50;93904.34;;;18.85;97.85
23363;BME280;11853;48.080;11.960;2023-08-01T02:40:16;93901.31;;;18.81;98.88
23363;BME280;11853;48.080;11.960;2023-08-01T02:42:41;93897.72;;;18.87;98.06
23363;BME280;11853;48.080;11.960;2023-08-01T02:45:07;93892.13;;;18.89;97.81
23363;BME280;11853;48.080;11.960;2023-08-01T02:47:33;93889.50;;;18.82;98.72
23363;BME280;11853;48.080;11.960;2023-08-01T02:49:59;93883.91;;;18.84;99.14
23363;BME280;11853;48.080;11.960;2023-08-01T02:52:24;93878.41;;;18.79;100.00
23363;BME280;11853;48.080;11.960;2023-08-01T02:54:50;93877.34;;;18.80;100.00
23363;BME280;11853;48.080;11.960;2023-08-01T02:57:15;93882.16;;;18.78;100.00
23363;BME280;11853;48.080;11.960;2023-08-01T02:59:41;93880.88;;;18.80;100.00
23363;BME280;11853;48.080;11.960;2023-08-01T03:02:07;93884.38;;;18.81;100.00
23363;BME280;11853;48.080;11.960;2023-08-01T03:04:32;93886.00;;;18.82;100.00
23363;BME280;11853;48.080;11.960;2023-08-01T03:06:58;93884.13;;;18.82;100.00
23363;BME280;11853;48.080;11.960;2023-08-01T03:09:24;93887.41;;;18.84;100.00
23363;BME280;11853;48.080;11.960;2023-08-01T03:11:49;93887.41;;;18.84;100.00
23363;BME280;11853;48.080;11.960;2023-08-01T03:14:15;93887.41;;;18.84;100.00
23363;BME280;11853;48.080;11.960;2023-08-01T03:16:42;93885.53;;;18.85;100.00
23363;BME280;11853;48.080;11.960;2023-08-01T03:19:07;93891.53;;;18.87;100.00
23363;BME280;11853;48.080;11.960;2023-08-01T03:21:34;93886.75;;;18.89;100.00
23363;BME280;11853;48.080;11.960;2023-08-01T03:24:01;93889.19;;;18.90;100.00
23363;BME280;11853;48.080;11.960;2023-08-01T03:26:27;93888.03;;;18.86;100.00
23363;BME280;11853;48.080;11.960;2023-08-01T03:28:56;93884.13;;;18.82;100.00
23363;BME280;11853;48.080;11.960;2023-08-01T03:31:24;93892.06;;;18.77;100.00
23363;BME280;11853;48.080;11.960;2023-08-01T03:33:50;93896.03;;;18.75;100.00
23363;BME280;11853;48.080;11.960;2023-08-01T03:36:16;93885.66;;;18.78;100.00
23363;BME280;11853;48.080;11.960;2023-08-01T03:38:41;93876.78;;;18.78;100.00
23363;BME280;11853;48.080;11.960;2023-08-01T03:41:07;93873.47;;;18.76;100.00
23363;BME280;11853;48.080;11.960;2023-08-01T03:43:33;93879.91;;;18.75;100.00
23363;BME280;11853;48.080;11.960;2023-08-01T03:45:58;93887.13;;;18.74;100.00
23363;BME280;11853;48.080;11.960;2023-08-01T03:48:24;93887.97;;;18.75;100.00
23363;BME280;11853;48.080;11.960;2023-08-01T03:50:49;93896.03;;;18.75;100.00
23363;BME280;11853;48.080;11.960;2023-08-01T03:53:15;93891.69;;;18.74;100.00
23363;BME280;11853;48.080;11.960;2023-08-01T03:55:41;93893.34;;;18.75;100.00
23363;BME280;11853;48.080;11.960;2023-08-01T03:58:07;93904.91;;;18.75;100.00
23363;BME280;11853;48.080;11.960;2023-08-01T04:00:33;93908.63;;;18.74;100.00
23363;BME280;11853;48.080;11.960;2023-08-01T04:03:00;93913.59;;;18.71;100.00
23363;BME280;11853;48.080;11.960;2023-08-01T04:05:27;93904.53;;;18.72;100.00
23363;BME280;11853;48.080;11.960;2023-08-01T04:07:53;93894.22;;;18.68;100.00
23363;BME280;11853;48.080;11.960;2023-08-01T04:10:21;93905.19;;;18.67;100.00
23363;BME280;11853;48.080;11.960;2023-08-01T04:16:08;93909.50;;;18.68;100.00
23363;BME280;11853;48.080;11.960;2023-08-01T04:18:33;93902.03;;;18.70;100.00
23363;BME280;11853;48.080;11.960;2023-08-01T04:20:59;93906.16;;;18.73;100.00
23363;BME280;11853;48.080;11.960;2023-08-01T04:23:24;93916.09;;;18.72;100.00
23363;BME280;11853;48.080;11.960;2023-08-01T04:25:50;93920.66;;;18.72;100.00
23363;BME280;11853;48.080;11.960;2023-08-01T04:28:15;93930.19;;;18.67;100.00
23363;BME280;11853;48.080;11.960;2023-08-01T04:30:41;93917.66;;;18.61;100.00
23363;BME280;11853;48.080;11.960;2023-08-01T04:33:06;93913.47;;;18.65;100.00
23363;BME280;11853;48.080;11.960;2023-08-01T04:35:32;93924.81;;;18.67;100.00
23363;BME280;11853;48.080;11.960;2023-08-01T04:37:57;93916.28;;;18.71;100.00
23363;BME280;11853;48.080;11.960;2023-08-01T04:40:23;93920.22;;;18.75;100.00
23363;BME280;11853;48.080;11.960;2023-08-01T04:42:48;93923.47;;;18.77;100.00
23363;BME280;11853;48.080;11.960;2023-08-01T04:45:14;93931.53;;;18.77;100.00
23363;BME280;11853;48.080;11.960;2023-08-01T04:47:40;93927.22;;;18.76;100.00
23363;BME280;11853;48.080;11.960;2023-08-01T04:50:06;93923.94;;;18.74;100.00
23363;BME280;11853;48.080;11.960;2023-08-01T04:52:31;93927.44;;;18.74;100.00
23363;BME280;11853;48.080;11.960;2023-08-01T04:54:57;93921.84;;;18.76;100.00
23363;BME280;11853;48.080;11.960;2023-08-01T04:57:22;93926.41;;;18.75;100.00
23363;BME280;11853;48.080;11.960;2023-08-01T04:59:48;93927.22;;;18.76;100.00
23363;BME280;11853;48.080;11.960;2023-08-01T05:02:13;93921.84;;;18.76;100.00
23363;BME280;11853;48.080;11.960;2023-08-01T05:04:39;93926.41;;;18.75;100.00
23363;BME280;11853;48.080;11.960;2023-08-01T05:07:04;93921.84;;;18.76;100.00
23363;BME280;11853;48.080;11.960;2023-08-01T05:09:32;93915.41;;;18.77;100.00
23363;BME280;11853;48.080;11.960;2023-08-01T05:11:57;93901.97;;;18.77;100.00
23363;BME280;11853;48.080;11.960;2023-08-01T05:14:23;93896.16;;;18.80;100.00
23363;BME280;11853;48.080;11.960;2023-08-01T05:16:48;93904.22;;;18.80;100.00
23363;BME280;11853;48.080;11.960;2023-08-01T05:19:14;93915.72;;;18.68;100.00
23363;BME280;11853;48.080;11.960;2023-08-01T05:21:39;93915.94;;;18.67;100.00
23363;BME280;11853;48.080;11.960;2023-08-01T05:24:06;93919.59;;;18.73;100.00
23363;BME280;11853;48.080;11.960;2023-08-01T05:26:32;93905.94;;;18.74;100.00
23363;BME280;11853;48.080;11.960;2023-08-01T05:28:57;93898.09;;;18.73;100.00
23363;BME280;11853;48.080;11.960;2023-08-01T05:31:23;93904.53;;;18.72;100.00
23363;BME280;11853;48.080;11.960;2023-08-01T05:33:48;93901.22;;;18.69;100.00
23363;BME280;11853;48.080;11.960;2023-08-01T05:36:14;93907.06;;;18.66;100.00
23363;BME280;11853;48.080;11.960;2023-08-01T05:38:39;93891.25;;;18.58;100.00
23363;BME280;11853;48.080;11.960;2023-08-01T05:41:05;93899.91;;;18.60;100.00
23363;BME280;11853;48.080;11.960;2023-08-01T05:43:30;93895.09;;;18.62;100.00
23363;BME280;11853;48.080;11.960;2023-08-01T05:45:56;93897.22;;;18.60;100.00
23363;BME280;11853;48.080;11.960;2023-08-01T05:48:21;93902.81;;;18.59;100.00
23363;BME280;11853;48.080;11.960;2023-08-01T05:50:47;93896.09;;;18.50;100.00
23363;BME280;11853;48.080;11.960;2023-08-01T05:53:12;93885.66;;;18.41;100.00
23363;BME280;11853;48.080;11.960;2023-08-01T05:55:38;93895.75;;;18.46;100.00
23363;BME280;11853;48.080;11.960;2023-08-01T05:58:03;93892.44;;;18.44;100.00
23363;BME280;11853;48.080;11.960;2023-08-01T06:00:29;93898.28;;;18.41;100.00
23363;BME280;11853;48.080;11.960;2023-08-01T06:02:55;93908.56;;;18.44;100.00
23363;BME280;11853;48.080;11.960;2023-08-01T06:05:21;93903.19;;;18.44;100.00
23363;BME280;11853;48.080;11.960;2023-08-01T06:07:46;93907.22;;;18.53;100.00
23363;BME280;11853;48.080;11.960;2023-08-01T06:10:12;93915.28;;;18.53;100.00
23363;BME280;11853;48.080;11.960;2023-08-01T06:12:37;93906.31;;;18.41;100.00
23363;BME280;11853;48.080;11.960;2023-08-01T06:15:04;93899.44;;;18.45;100.00
23363;BME280;11853;48.080;11.960;2023-08-01T06:17:30;93903.91;;;18.51;100.00
23363;BME280;11853;48.080;11.960;2023-08-01T06:19:56;93885.72;;;18.53;100.00
23363;BME280;11853;48.080;11.960;2023-08-01T06:22:21;93890.38;;;18.46;100.00
23363;BME280;11853;48.080;11.960;2023-08-01T06:24:47;93889.53;;;18.45;100.00
23363;BME280;11853;48.080;11.960;2023-08-01T06:27:12;93883.34;;;18.45;100.00
23363;BME280;11853;48.080;11.960;2023-08-01T06:29:40;93887.69;;;18.46;100.00
23363;BME280;11853;48.080;11.960;2023-08-01T06:32:06;93880.94;;;18.37;100.00
23363;BME280;11853;48.080;11.960;2023-08-01T06:34:31;93880.28;;;18.41;100.00
23363;BME280;11853;48.080;11.960;2023-08-01T06:36:57;93873.41;;;18.45;100.00
23363;BME280;11853;48.080;11.960;2023-08-01T06:39:23;93870.97;;;18.44;100.00
23363;BME280;11853;48.080;11.960;2023-08-01T06:41:48;93866.66;;;18.43;100.00
23363;BME280;11853;48.080;11.960;2023-08-01T06:44:14;93859.16;;;18.45;100.00
23363;BME280;11853;48.080;11.960;2023-08-01T06:46:39;93848.28;;;18.40;100.00
23363;BME280;11853;48.080;11.960;2023-08-01T06:49:05;93848.91;;;18.23;100.00
23363;BME280;11853;48.080;11.960;2023-08-01T06:51:30;93845.75;;;18.27;100.00
23363;BME280;11853;48.080;11.960;2023-08-01T06:53:56;93845.91;;;18.13;100.00
23363;BME280;11853;48.080;11.960;2023-08-01T06:56:21;93843.38;;;18.18;100.00
23363;BME280;11853;48.080;11.960;2023-08-01T06:58:47;93832.84;;;18.17;100.00
23363;BME280;11853;48.080;11.960;2023-08-01T07:01:12;93827.25;;;18.18;100.00
23363;BME280;11853;48.080;11.960;2023-08-01T07:03:38;93825.03;;;18.15;100.00
23363;BME280;11853;48.080;11.960;2023-08-01T07:06:04;93827.34;;;18.12;100.00
23363;BME280;11853;48.080;11.960;2023-08-01T07:08:29;93815.19;;;18.09;100.00
23363;BME280;11853;48.080;11.960;2023-08-01T07:10:55;93811.47;;;18.29;100.00
23363;BME280;11853;48.080;11.960;2023-08-01T07:13:20;93807.50;;;18.13;100.00
23363;BME280;11853;48.080;11.960;2023-08-01T07:15:47;93801.00;;;18.02;100.00
23363;BME280;11853;48.080;11.960;2023-08-01T07:18:13;93809.16;;;17.95;100.00
23363;BME280;11853;48.080;11.960;2023-08-01T07:20:39;93810.13;;;18.01;100.00
23363;BME280;11853;48.080;11.960;2023-08-01T07:23:04;93801.91;;;17.96;100.00
23363;BME280;11853;48.080;11.960;2023-08-01T07:25:30;93807.13;;;17.91;100.00
23363;BME280;11853;48.080;11.960;2023-08-01T07:27:55;93796.41;;;18.09;100.00
23363;BME280;11853;48.080;11.960;2023-08-01T07:30:21;93799.84;;;17.98;100.00
23363;BME280;11853;48.080;11.960;2023-08-01T07:32:46;93792.59;;;17.98;100.00
23363;BME280;11853;48.080;11.960;2023-08-01T07:35:12;93800.00;;;18.03;100.00
23363;BME280;11853;48.080;11.960;2023-08-01T07:37:39;93793.03;;;17.77;100.00
23363;BME280;11853;48.080;11.960;2023-08-01T07:40:05;93801.03;;;17.84;100.00
23363;BME280;11853;48.080;11.960;2023-08-01T07:42:31;93790.31;;;17.84;100.00
23363;BME280;11853;48.080;11.960;2023-08-01T07:44:57;93796.03;;;17.87;100.00
23363;BME280;11853;48.080;11.960;2023-08-01T07:47:22;93785.09;;;17.89;100.00
23363;BME280;11853;48.080;11.960;2023-08-01T07:49:49;93784.41;;;17.93;100.00
23363;BME280;11853;48.080;11.960;2023-08-01T07:52:15;93781.81;;;17.87;100.00
23363;BME280;11853;48.080;11.960;2023-08-01T07:54:40;93778.22;;;17.93;100.00
23363;BME280;11853;48.080;11.960;2023-08-01T07:57:06;93771.66;;;17.89;100.00
23363;BME280;11853;48.080;11.960;2023-08-01T07:59:31;93779.78;;;18.00;100.00
23363;BME280;11853;48.080;11.960;2023-08-01T08:01:57;93784.84;;;17.90;100.00
23363;BME280;11853;48.080;11.960;2023-08-01T08:04:22;93753.00;;;17.94;100.00
23363;BME280;11853;48.080;11.960;2023-08-01T08:06:48;93749.75;;;17.92;100.00
23363;BME280;11853;48.080;11.960;2023-08-01T08:09:13;93758.16;;;17.95;100.00
23363;BME280;11853;48.080;11.960;2023-08-01T08:11:39;93765.69;;;17.87;100.00
23363;BME280;11853;48.080;11.960;2023-08-01T08:14:04;93772.41;;;17.96;100.00
23363;BME280;11853;48.080;11.960;2023-08-01T08:16:30;93756.09;;;17.97;100.00
23363;BME280;11853;48.080;11.960;2023-08-01T08:18:56;93754.81;;;18.00;100.00
23363;BME280;11853;48.080;11.960;2023-08-01T08:21:21;93750.94;;;17.96;100.00
23363;BME280;11853;48.080;11.960;2023-08-01T08:23:47;93752.50;;;18.04;100.00
23363;BME280;11853;48.080;11.960;2023-08-01T08:26:12;93762.22;;;18.16;100.00
23363;BME280;11853;48.080;11.960;2023-08-01T08:28:38;93760.84;;;18.26;100.00
23363;BME280;11853;48.080;11.960;2023-08-01T08:31:05;93742.66;;;18.28;100.00
23363;BME280;11853;48.080;11.960;2023-08-01T08:33:30;93736.75;;;18.37;100.00
23363;BME280;11853;48.080;11.960;2023-08-01T08:35:56;93719.13;;;18.41;100.00
23363;BME280;11853;48.080;11.960;2023-08-01T08:38:21;93720.22;;;18.52;100.00
23363;BME280;11853;48.080;11.960;2023-08-01T08:43:19;93720.53;;;18.44;100.00
23363;BME280;11853;48.080;11.960;2023-08-01T08:45:45;93722.16;;;18.45;100.00
23363;BME280;11853;48.080;11.960;2023-08-01T08:48:18;93754.69;;;18.55;100.00
23363;BME280;11853;48.080;11.960;2023-08-01T08:50:46;93772.09;;;18.64;100.00
23363;BME280;11853;48.080;11.960;2023-08-01T08:53:13;93776.28;;;18.79;100.00
23363;BME280;11853;48.080;11.960;2023-08-01T08:55:41;93785.16;;;18.91;100.00
23363;BME280;11853;48.080;11.960;2023-08-01T08:58:10;93792.44;;;19.02;100.00
23363;BME280;11853;48.080;11.960;2023-08-01T09:00:36;93780.31;;;19.11;100.00
23363;BME280;11853;48.080;11.960;2023-08-01T09:03:04;93780.22;;;19.18;100.00
23363;BME280;11853;48.080;11.960;2023-08-01T09:05:44;93782.19;;;19.23;100.00
23363;BME280;11853;48.080;11.960;2023-08-01T09:08:14;93778.81;;;19.27;100.00
23363;BME280;11853;48.080;11.960;2023-08-01T09:10:40;93765.13;;;19.29;100.00
23363;BME280;11853;48.080;11.960;2023-08-01T09:13:07;93813.09;;;19.32;100.00
23363;BME280;11853;48.080;11.960;2023-08-01T09:15:34;93800.78;;;19.36;100.00
23363;BME280;11853;48.080;11.960;2023-08-01T09:17:59;93793.91;;;19.40;100.00
23363;BME280;11853;48.080;11.960;2023-08-01T09:20:28;93788.28;;;19.42;100.00
23363;BME280;11853;48.080;11.960;2023-08-01T09:22:54;93792.13;;;19.46;100.00
23363;BME280;11853;48.080;11.960;2023-08-01T09:25:19;93790.28;;;19.46;100.00
23363;BME280;11853;48.080;11.960;2023-08-01T09:27:45;93782.69;;;19.43;100.00
23363;BME280;11853;48.080;11.960;2023-08-01T09:30:12;93781.38;;;19.46;100.00
23363;BME280;11853;48.080;11.960;2023-08-01T09:32:40;93776.00;;;19.46;100.00
23363;BME280;11853;48.080;11.960;2023-08-01T09:35:16;93773.06;;;19.47;100.00
23363;BME280;11853;48.080;11.960;2023-08-01T09:37:42;93762.91;;;19.49;100.00
23363;BME280;11853;48.080;11.960;2023-08-01T09:40:09;93758.09;;;19.51;100.00
23363;BME280;11853;48.080;11.960;2023-08-01T09:42:42;93751.09;;;19.50;100.00
23363;BME280;11853;48.080;11.960;2023-08-01T09:45:15;93770.50;;;19.52;100.00
23363;BME280;11853;48.080;11.960;2023-08-01T09:47:42;93788.88;;;19.55;100.00
23363;BME280;11853;48.080;11.960;2023-08-01T09:50:11;93785.72;;;19.58;100.00
23363;BME280;11853;48.080;11.960;2023-08-01T09:52:38;93791.09;;;19.58;100.00
23363;BME280;11853;48.080;11.960;2023-08-01T09:55:04;93792.50;;;19.61;100.00
23363;BME280;11853;48.080;11.960;2023-08-01T09:57:30;93785.25;;;19.62;100.00
23363;BME280;11853;48.080;11.960;2023-08-01T09:59:57;93796.00;;;19.62;100.00
23363;BME280;11853;48.080;11.960;2023-08-01T10:02:29;93794.38;;;19.61;100.00
23363;BME280;11853;48.080;11.960;2023-08-01T10:05:00;93800.09;;;19.64;100.00
23363;BME280;11853;48.080;11.960;2023-08-01T10:07:29;93785.25;;;19.62;100.00
23363;BME280;11853;48.080;11.960;2023-08-01T10:09:58;93786.66;;;19.64;100.00
23363;BME280;11853;48.080;11.960;2023-08-01T10:12:26;93790.16;;;19.65;100.00
23363;BME280;11853;48.080;11.960;2023-08-01T10:14:53;93784.78;;;19.65;100.00
23363;BME280;11853;48.080;11.960;2023-08-01T10:17:21;93782.94;;;19.65;100.00
23363;BME280;11853;48.080;11.960;2023-08-01T10:19:48;93792.19;;;19.69;100.00
23363;BME280;11853;48.080;11.960;2023-08-01T10:22:14;93805.84;;;19.68;100.00
23363;BME280;11853;48.080;11.960;2023-08-01T10:24:41;93811.25;;;19.68;100.00
23363;BME280;11853;48.080;11.960;2023-08-01T10:27:21;93817.22;;;19.70;100.00
23363;BME280;11853;48.080;11.960;2023-08-01T10:29:58;93828.22;;;19.68;100.00
23363;BME280;11853;48.080;11.960;2023-08-01T10:32:37;93819.09;;;19.69;100.00
23363;BME280;11853;48.080;11.960;2023-08-01T10:35:03;93811.84;;;19.70;100.00
23363;BME280;11853;48.080;11.960;2023-08-01T10:37:41;93817.06;;;19.65;100.00
23363;BME280;11853;48.080;11.960;2023-08-01T10:40:12;93812.38;;;19.60;100.00
23363;BME280;11853;48.080;11.960;2023-08-01T10:42:42;93817.91;;;19.65;100.00
23363;BME280;11853;48.080;11.960;2023-08-01T10:45:23;93808.81;;;19.66;100.00
23363;BME280;11853;48.080;11.960;2023-08-01T10:47:54;93801.38;;;19.62;99.87
23363;BME280;11853;48.080;11.960;2023-08-01T10:50:20;93796.38;;;19.65;100.00
23363;BME280;11853;48.080;11.960;2023-08-01T10:52:45;93787.81;;;19.80;100.00
23363;BME280;11853;48.080;11.960;2023-08-01T10:55:12;93800.09;;;19.88;99.70
23363;BME280;11853;48.080;11.960;2023-08-01T10:57:48;93804.91;;;19.97;100.00
23363;BME280;11853;48.080;11.960;2023-08-01T11:00:16;93797.28;;;20.06;98.29
23363;BME280;11853;48.080;11.960;2023-08-01T11:02:51;93792.25;;;20.10;97.10
23363;BME280;11853;48.080;11.960;2023-08-01T11:05:20;93793.88;;;20.11;95.91
23363;BME280;11853;48.080;11.960;2023-08-01T11:10:22;93790.38;;;19.98;94.32
23363;BME280;11853;48.080;11.960;2023-08-01T11:13:10;93781.38;;;19.93;93.69
23363;BME280;11853;48.080;11.960;2023-08-01T11:18:48;93757.53;;;19.73;96.70
23363;BME280;11853;48.080;11.960;2023-08-01T11:21:25;93770.72;;;19.63;97.36
23363;BME280;11853;48.080;11.960;2023-08-01T11:23:51;93774.00;;;19.65;97.23
23363;BME280;11853;48.080;11.960;2023-08-01T11:26:17;93774.63;;;19.67;97.03
23363;BME280;11853;48.080;11.960;2023-08-01T11:28:42;93770.25;;;19.54;98.01
23363;BME280;11853;48.080;11.960;2023-08-01T11:31:11;93769.44;;;19.53;98.69
23363;BME280;11853;48.080;11.960;2023-08-01T11:33:40;93778.59;;;19.52;100.00
23363;BME280;11853;48.080;11.960;2023-08-01T11:36:06;93774.34;;;19.56;100.00
23363;BME280;11853;48.080;11.960;2023-08-01T11:38:33;93776.50;;;19.54;100.00
23363;BME280;11853;48.080;11.960;2023-08-01T11:41:04;93772.59;;;19.50;100.00
23363;BME280;11853;48.080;11.960;2023-08-01T11:43:42;93771.34;;;19.41;100.00
23363;BME280;11853;48.080;11.960;2023-08-01T11:46:08;93768.63;;;19.41;100.00
23363;BME280;11853;48.080;11.960;2023-08-01T11:48:35;93783.16;;;19.40;100.00
23363;BME280;11853;48.080;11.960;2023-08-01T11:51:01;93802.53;;;19.42;100.00
23363;BME280;11853;48.080;11.960;2023-08-01T11:53:28;93805.00;;;19.32;100.00
23363;BME280;11853;48.080;11.960;2023-08-01T11:55:54;93794.81;;;19.34;100.00
23363;BME280;11853;48.080;11.960;2023-08-01T11:58:35;93803.34;;;19.31;100.00
23363;BME280;11853;48.080;11.960;2023-08-01T12:01:06;93801.25;;;19.33;100.00
23363;BME280;11853;48.080;11.960;2023-08-01T12:03:42;93811.22;;;19.32;100.00
23363;BME280;11853;48.080;11.960;2023-08-01T12:06:08;93806.38;;;19.23;100.00
23363;BME280;11853;48.080;11.960;2023-08-01T12:08:34;93797.50;;;19.22;100.00
23363;BME280;11853;48.080;11.960;2023-08-01T12:11:00;93794.13;;;19.27;100.00
23363;BME280;11853;48.080;11.960;2023-08-01T12:13:26;93787.69;;;19.28;100.00
23363;BME280;11853;48.080;11.960;2023-08-01T12:15:53;93782.44;;;19.33;100.00
23363;BME280;11853;48.080;11.960;2023-08-01T12:18:23;93790.28;;;19.34;100.00
23363;BME280;11853;48.080;11.960;2023-08-01T12:20:49;93778.13;;;19.32;100.00
23363;BME280;11853;48.080;11.960;2023-08-01T12:23:14;93789.81;;;19.38;100.00
23363;BME280;11853;48.080;11.960;2023-08-01T12:25:40;93801.38;;;19.38;100.00
23363;BME280;11853;48.080;11.960;2023-08-01T12:28:05;93807.59;;;19.39;100.00
23363;BME280;11853;48.080;11.960;2023-08-01T12:30:31;93811.34;;;19.38;100.00
23363;BME280;11853;48.080;11.960;2023-08-01T12:32:57;93819.88;;;19.46;100.00
23363;BME280;11853;48.080;11.960;2023-08-01T12:35:22;93808.19;;;19.52;100.00
23363;BME280;11853;48.080;11.960;2023-08-01T12:37:48;93819.16;;;19.63;100.00
23363;BME280;11853;48.080;11.960;2023-08-01T12:40:13;93825.50;;;19.68;100.00
23363;BME280;11853;48.080;11.960;2023-08-01T12:42:39;93823.75;;;19.74;100.00
23363;BME280;11853;48.080;11.960;2023-08-01T12:45:05;93816.28;;;19.76;100.00
23363;BME280;11853;48.080;11.960;2023-08-01T12:47:31;93814.28;;;19.83;100.00
23363;BME280;11853;48.080;11.960;2023-08-01T12:49:56;93816.72;;;19.85;100.00
23363;BME280;11853;48.080;11.960;2023-08-01T12:52:23;93816.03;;;19.89;100.00